FKKR

Garoua International Airport

Garoua, Cameroon
METAR FKKR 251800Z 28006KT 9999 FEW016 FEW020CB 30/26 Q1009 NOSIG
Observed Flight Rules
Sep-25 @ 18:00 UTC (2 hours ago) Visual Flight Rules
Wind Visibility Clouds
280° at 6 knots 10,000+ meters
  • Few at 1,600' AGL
  • Few at 2,000' AGL
Temperatures Readings
Current 30°C / 86°F
Dewpoint 26°C / 79°F
Humidity 79%
Altimeter 29.79" Hg
Pressure 1009 hPa
Elevation 244
METAR FKKR 251800Z 28006KT 9999 FEW016 FEW020CB 30/26 Q1009 NOSIG
Observed Flight Rules
Sep-25 @ 18:00 UTC
(2 hours ago)
VFR
Wind Visibility
280° at 6 knots 10,000+ meters
Clouds
  • Few at 1,600' AGL
  • Few at 2,000' AGL
Temperature Dewpoint
30°C / 86°F 26°C / 79°F
Humidity Altimeter Pressure
79% 29.79" Hg 1009 hPa